Airfield :
LOGIN :

Register | Disclaimer

   EN    FR    IT 

 










Legend :    VFR   Marginal VFR   IFR   Intensive IFR   Very Intensive IFR
Visi :
Ceiling :
>= 8 km
>= 3000ft
5 to 8 km
1000 to 3000 ft
1500m to 5 km
500 to 1000 ft
800 to 1500m
200 to 500 ft
< 800m
< 200 ft
Symbols :   Thunderstorms  Fog  Heavy snow  Heavy precipitations  Wind > 20 kt
SIGMETs :     Misc.  Thunderstorms  Icing  Turbulence  Mountain Waves  Volcanic Ashes






- Airport Elevation : 39 ft
- IATA code : ANR


EBAW - Anvers / Antwerpen Deurne

CURRENT METAR :
  • 301320Z 00000KT 6000 FEW005 BKN027 BKN045 08/06 Q1025 TEMPO 4000 BR

EXPIRED METARs :
  • 301250Z VRB01KT 6000 FEW005 BKN027 BKN045 08/06 Q1025 TEMPO 4000 BR
  • 301220Z VRB01KT 6000 SCT005 BKN027 BKN045 08/06 Q1025 TEMPO 4000 BR
  • 301150Z VRB02KT 6000 SCT005 BKN027 BKN045 07/06 Q1025 TEMPO 4000 BR
  • 301120Z VRB02KT 4000 BR BKN005 BKN045 07/06 Q1025 TEMPO 6000 NSW BECMG SCT006
  • 301050Z 32003KT 290V350 4000 BR BKN005 BKN045 07/06 Q1025 TEMPO 6000 NSW BECMG SCT006

TAF TAF EBAW
Valid from the 30 at 12:00 until the 30 at 21:00 UTC


301100Z 3012/3021 02003KT 3000 BR BKN004
BECMG 3012/3014 6000 NSW BKN008
TEMPO 3014/3018 SCT012
BECMG 3019/3021 4000 BR BKN003



MET'MAP, your aeronautical weather chart ! - Copyright ORBIFLY December 2007 - Disclaimer

ORBIFLY MET'MAP TEAM :

Programming & Development : Alexandra Zaïnal
Original concept : Baudouin d'Aumeries
Technical & hardware support : Manuel Goepfert
Assistance : Marc-Olivier Méhu




SOURCES & CREDITS :

   NOAA